Time;durP1;ratioP1;P1;durP2;ratioP2;P2;SDS_P1;SDS_P2;PMS_P1;PMS_P2;Temp;Humidity;BMP_temperature;BMP_pressure;BME280_temperature;BME280_humidity;BME280_pressure;Samples;Min_cycle;Max_cycle;Signal;HPM_P1;HPM_P2
2022/11/25 05:33:12;;;;;;;;;6.00;3.25;;;;;10.55;81.65;101054.72;4945219;28;45355;-72
2022/11/25 05:35:37;;;;;;;;;3.00;2.00;;;;;10.48;81.41;101049.69;4957604;28;45393;-71
2022/11/25 05:38:03;;;;;;;;;3.50;3.00;;;;;10.46;81.57;101060.44;4957459;28;45289;-71
2022/11/25 05:40:29;;;;;;;;;3.25;2.00;;;;;10.36;81.73;101048.38;4957490;28;45359;-72
2022/11/25 05:42:54;;;;;;;;;3.00;1.50;;;;;10.36;81.55;101061.78;4957425;28;45285;-73
2022/11/25 05:45:20;;;;;;;;;5.00;2.75;;;;;10.39;81.84;101074.16;4957379;28;45283;-71
2022/11/25 05:47:45;;;;;;;;;2.50;2.50;;;;;10.37;81.40;101076.94;4957581;28;45361;-72
2022/11/25 05:50:10;;;;;;;;;7.75;4.75;;;;;10.30;81.57;101069.16;4952798;28;46574;-74
2022/11/25 05:52:36;;;;;;;;;5.25;3.50;;;;;10.39;81.68;101077.72;4957645;28;45218;-72
2022/11/25 05:55:01;;;;;;;;;4.00;3.00;;;;;10.36;81.18;101080.53;4923888;28;45406;-72
2022/11/25 05:57:28;;;;;;;;;5.00;3.25;;;;;10.34;81.18;101082.41;4957371;28;45304;-73
2022/11/25 05:59:53;;;;;;;;;4.00;4.00;;;;;10.21;81.09;101063.25;4957184;28;45429;-73
2022/11/25 06:02:19;;;;;;;;;3.75;3.25;;;;;10.31;81.39;101084.31;4956691;28;45484;-72
2022/11/25 06:04:45;;;;;;;;;10.00;3.00;;;;;10.29;81.21;101075.50;4957362;28;45385;-72
2022/11/25 06:07:10;;;;;;;;;4.75;1.75;;;;;10.19;81.13;101072.28;4940140;28;45434;-78
2022/11/25 06:09:35;;;;;;;;;3.00;3.00;;;;;10.23;81.60;101080.13;4961184;28;45345;-71
2022/11/25 06:12:01;;;;;;;;;4.25;3.00;;;;;10.31;81.10;101095.03;4950989;28;45476;-74
2022/11/25 06:14:26;;;;;;;;;3.75;2.25;;;;;10.23;81.24;101084.63;4937947;28;45359;-70
2022/11/25 06:16:52;;;;;;;;;4.00;4.00;;;;;10.12;80.76;101063.56;4937647;28;45459;-74
2022/11/25 06:19:17;;;;;;;;;4.75;2.00;;;;;10.31;80.60;101101.28;4937641;28;45588;-76
2022/11/25 06:21:43;;;;;;;;;6.50;4.50;;;;;10.33;80.25;101114.63;4937851;28;45379;-69
2022/11/25 06:24:08;;;;;;;;;3.75;2.50;;;;;10.32;79.95;101103.03;4937641;28;45470;-72
2022/11/25 06:26:34;;;;;;;;;5.50;3.00;;;;;10.21;80.29;101108.78;4937738;28;45497;-75
2022/11/25 06:28:59;;;;;;;;;3.00;3.00;;;;;10.24;80.61;101127.44;4937758;28;45284;-75
2022/11/25 06:31:25;;;;;;;;;4.00;3.00;;;;;10.17;80.28;101123.25;4950661;28;46331;-75
2022/11/25 06:33:53;;;;;;;;;3.00;3.00;;;;;10.26;80.20;101124.72;4975913;28;45350;-73
2022/11/25 06:36:19;;;;;;;;;4.00;3.00;;;;;10.28;79.73;101130.88;4976557;28;45358;-76
2022/11/25 06:38:47;;;;;;;;;4.50;3.00;;;;;10.29;79.56;101140.69;4976400;28;45596;-70
2022/11/25 06:41:13;;;;;;;;;3.50;2.25;;;;;10.29;79.97;101138.00;4976104;28;45653;-71
2022/11/25 06:43:39;;;;;;;;;6.00;4.50;;;;;10.33;79.78;101152.13;4958707;28;45458;-71
2022/11/25 06:46:10;;;;;;;;;4.00;2.25;;;;;10.25;79.88;101155.09;4976131;28;45415;-73
2022/11/25 06:48:36;;;;;;;;;4.50;4.00;;;;;10.19;79.94;101156.22;4975958;28;45583;-74
2022/11/25 06:51:04;;;;;;;;;3.75;1.50;;;;;10.11;79.60;101144.00;4958740;28;47778;-75
2022/11/25 06:53:31;;;;;;;;;7.25;5.50;;;;;10.12;80.17;101154.66;4975832;28;45322;-75
2022/11/25 06:56:02;;;;;;;;;3.75;3.50;;;;;10.13;80.18;101159.06;4976413;28;45338;-70
2022/11/25 06:58:29;;;;;;;;;3.75;3.25;;;;;10.20;80.20;101160.66;4958702;28;46968;-69
2022/11/25 07:00:59;;;;;;;;;4.25;3.00;;;;;10.23;79.79;101162.31;4976055;28;46522;-69
2022/11/25 07:03:25;;;;;;;;;2.75;2.75;;;;;10.10;79.91;101151.19;4976166;28;45441;-69
2022/11/25 07:05:50;;;;;;;;;4.00;4.00;;;;;10.13;80.04;101156.41;4978012;28;45438;-69
2022/11/25 07:08:15;;;;;;;;;4.00;2.50;;;;;10.11;79.80;101147.56;4977721;28;45380;-69
2022/11/25 07:10:41;;;;;;;;;7.25;3.25;;;;;10.11;80.60;101154.72;4977747;28;46050;-69
2022/11/25 07:13:06;;;;;;;;;6.25;3.75;;;;;10.15;80.15;101167.94;4976707;28;45312;-71
2022/11/25 07:15:33;;;;;;;;;9.25;5.75;;;;;10.14;79.94;101168.00;4975883;28;45386;-69
2022/11/25 07:17:58;;;;;;;;;3.00;3.00;;;;;10.10;79.91;101169.06;4973814;28;45420;-70
2022/11/25 07:20:26;;;;;;;;;8.25;5.00;;;;;10.09;79.88;101160.13;4975580;28;46316;-69
2022/11/25 07:22:51;;;;;;;;;9.25;3.00;;;;;10.18;80.00;101175.03;4975531;28;45474;-69
2022/11/25 07:25:17;;;;;;;;;8.00;4.00;;;;;10.06;79.58;101165.59;4975662;28;45892;-70
2022/11/25 07:27:42;;;;;;;;;5.25;3.75;;;;;10.14;79.53;101179.59;4975316;28;45382;-68
2022/11/25 07:30:08;;;;;;;;;4.50;3.25;;;;;10.19;79.34;101192.88;4957829;28;45654;-70
2022/11/25 07:32:33;;;;;;;;;7.00;3.75;;;;;10.17;79.11;101195.59;4954214;28;45409;-70
2022/11/25 07:34:59;;;;;;;;;5.50;4.00;;;;;10.19;79.52;101204.47;4956468;28;45505;-69
2022/11/25 07:37:24;;;;;;;;;4.75;4.00;;;;;10.19;79.34;101195.53;4955680;28;45447;-70
2022/11/25 07:39:49;;;;;;;;;8.75;5.00;;;;;10.27;79.28;101206.84;4954744;28;45993;-68
2022/11/25 07:42:15;;;;;;;;;6.25;4.25;;;;;10.32;78.81;101220.06;4955324;28;45467;-69
2022/11/25 07:44:41;;;;;;;;;3.25;3.25;;;;;10.28;78.39;101222.00;4955691;28;45322;-73
2022/11/25 07:47:06;;;;;;;;;6.25;4.00;;;;;10.37;79.18;101226.13;4955579;28;45268;-71
2022/11/25 07:49:32;;;;;;;;;4.50;3.00;;;;;10.32;78.37;101214.69;4954510;28;47088;-71
2022/11/25 07:52:03;;;;;;;;;3.75;3.75;;;;;10.36;78.18;101227.06;4954039;28;49628;-71
2022/11/25 07:54:30;;;;;;;;;5.25;3.25;;;;;10.24;78.59;101215.88;4946210;28;45576;-67
2022/11/25 07:56:55;;;;;;;;;4.00;4.00;;;;;10.27;78.44;101239.00;4944677;28;45712;-69
2022/11/25 07:59:23;;;;;;;;;10.00;4.50;;;;;10.28;78.48;101239.88;4943856;28;47251;-70
2022/11/25 08:01:50;;;;;;;;;4.00;4.00;;;;;10.15;78.29;101231.38;4946846;28;45523;-67
2022/11/25 08:04:16;;;;;;;;;5.00;5.00;;;;;10.18;78.83;101242.91;4954051;28;45529;-68
2022/11/25 08:06:43;;;;;;;;;7.75;6.00;;;;;10.10;78.83;101254.78;4938803;28;45384;-70
2022/11/25 08:09:11;;;;;;;;;4.25;3.00;;;;;10.10;79.08;101260.13;4935996;28;46214;-69
2022/11/25 08:11:37;;;;;;;;;9.25;5.75;;;;;10.14;78.75;101270.69;4948012;28;45429;-68
2022/11/25 08:14:03;;;;;;;;;6.75;4.75;;;;;10.07;79.25;101268.28;4944688;28;45460;-69
2022/11/25 08:16:32;;;;;;;;;2.75;2.75;;;;;10.10;79.06;101286.94;4936152;28;45573;-69
2022/11/25 08:19:00;;;;;;;;;5.00;3.00;;;;;10.13;79.03;101294.84;4935663;28;45298;-67
2022/11/25 08:21:25;;;;;;;;;7.25;4.75;;;;;10.12;79.11;101303.84;4934940;28;45392;-68
2022/11/25 08:23:51;;;;;;;;;5.25;4.00;;;;;10.10;79.05;101309.25;4935624;28;45377;-69
2022/11/25 08:26:29;;;;;;;;;4.50;4.50;;;;;10.13;79.12;101309.09;4933936;28;46203;-69
2022/11/25 08:28:58;;;;;;;;;3.50;3.50;;;;;10.14;78.78;101304.63;4945795;28;48031;-67
2022/11/25 08:31:36;;;;;;;;;5.75;4.00;;;;;10.15;78.94;101303.69;4948703;28;45777;-68
2022/11/25 08:34:02;;;;;;;;;2.50;2.50;;;;;10.28;78.87;101313.13;4973680;28;45463;-68
2022/11/25 08:36:31;;;;;;;;;4.00;3.00;;;;;10.25;78.46;101302.50;4973403;28;45342;-68
2022/11/25 08:39:00;;;;;;;;;5.00;5.00;;;;;10.27;78.30;101313.16;4955669;28;46316;-68
2022/11/25 08:41:32;;;;;;;;;9.50;4.50;;;;;10.28;78.51;101312.22;4974449;28;45444;-68
2022/11/25 08:43:59;;;;;;;;;10.75;7.25;;;;;10.20;78.99;101312.50;4975169;28;45491;-68
2022/11/25 08:46:29;;;;;;;;;4.50;4.50;;;;;10.12;78.63;101296.63;4956820;28;45515;-69
2022/11/25 08:48:55;;;;;;;;;6.00;5.75;;;;;10.30;78.79;101332.66;4973625;28;47661;-68
2022/11/25 08:51:23;;;;;;;;;8.50;6.25;;;;;10.27;78.52;101331.91;4974521;28;45560;-69
2022/11/25 08:53:52;;;;;;;;;8.00;4.75;;;;;10.30;78.19;101345.19;4975100;28;45473;-68
2022/11/25 08:56:20;;;;;;;;;5.25;5.25;;;;;10.33;78.30;101356.69;4958840;28;45568;-69
2022/11/25 08:58:48;;;;;;;;;8.50;6.25;;;;;10.34;78.23;101354.88;4973906;28;45652;-67
2022/11/25 09:01:14;;;;;;;;;10.50;6.50;;;;;10.30;77.98;101346.06;4957906;28;45381;-67
2022/11/25 09:03:42;;;;;;;;;4.50;4.00;;;;;10.42;77.57;101358.16;4956751;28;45500;-68
2022/11/25 09:06:09;;;;;;;;;4.25;4.00;;;;;10.45;77.41;101358.94;4958044;28;45312;-68
2022/11/25 09:08:36;;;;;;;;;8.00;4.00;;;;;10.45;77.03;101372.34;4957531;28;45506;-68
2022/11/25 09:11:02;;;;;;;;;4.50;3.75;;;;;10.44;76.87;101369.72;4966794;28;45384;-69
2022/11/25 09:13:27;;;;;;;;;6.25;4.50;;;;;10.48;77.30;101382.94;4972279;28;45214;-67
2022/11/25 09:15:53;;;;;;;;;5.00;3.50;;;;;10.45;77.15;101374.16;4957350;28;45556;-68
2022/11/25 09:18:19;;;;;;;;;5.50;4.00;;;;;10.46;77.04;101375.91;4956816;28;46159;-68
2022/11/25 09:20:45;;;;;;;;;6.75;3.00;;;;;10.39;77.02;101371.66;4957988;28;45362;-68
2022/11/25 09:23:12;;;;;;;;;9.00;6.25;;;;;10.52;77.66;101395.34;4974602;28;45526;-69
2022/11/25 09:25:37;;;;;;;;;6.50;5.00;;;;;10.61;77.46;101386.97;4959282;28;45365;-69
2022/11/25 09:28:03;;;;;;;;;10.25;6.00;;;;;10.67;77.47;101391.22;4959049;28;48280;-70
2022/11/25 09:30:30;;;;;;;;;4.00;4.00;;;;;10.72;76.97;101407.16;4964401;28;45745;-69
2022/11/25 09:32:55;;;;;;;;;3.50;3.50;;;;;10.68;77.06;101413.56;4974547;28;45470;-68
2022/11/25 09:35:23;;;;;;;;;5.50;4.00;;;;;10.54;77.13;101392.59;4976528;28;45872;-67
2022/11/25 09:37:48;;;;;;;;;5.00;5.00;;;;;10.66;76.57;101410.03;4976290;28;45382;-67
2022/11/25 09:40:54;;;;;;;;;5.50;4.25;;;;;10.69;76.58;101408.13;4976698;28;45487;-69
2022/11/25 09:46:55;;;;;;;;;9.50;6.25;;;;;10.69;76.04;101434.06;4967123;28;45391;-68
2022/11/25 09:49:47;;;;;;;;;4.25;4.00;;;;;10.64;76.22;101436.91;4975594;28;46583;-68
2022/11/25 09:52:27;;;;;;;;;5.75;4.00;;;;;10.61;76.33;101443.28;4976919;28;45436;-68
2022/11/25 09:55:05;;;;;;;;;15.75;14.75;;;;;10.61;76.29;101445.06;4976913;28;45471;-68
2022/11/25 09:57:43;;;;;;;;;7.50;4.00;;;;;10.63;76.24;101458.44;4976071;28;46782;-67
2022/11/25 10:00:16;;;;;;;;;3.00;3.00;;;;;10.66;76.01;101469.91;4960861;28;45806;-68
2022/11/25 10:03:05;;;;;;;;;3.00;3.00;;;;;10.70;75.92;101457.28;4956538;28;45480;-68
2022/11/25 10:05:46;;;;;;;;;6.00;4.50;;;;;10.76;75.92;101463.31;4956629;28;45321;-69
2022/11/25 10:08:16;;;;;;;;;3.50;3.50;;;;;10.84;75.73;101466.59;4956303;28;45528;-67
2022/11/25 10:10:53;;;;;;;;;7.00;3.75;;;;;10.90;75.95;101469.03;4963278;28;46772;-75
2022/11/25 10:13:27;;;;;;;;;4.00;3.00;;;;;11.00;75.44;101470.47;4972773;28;45332;-72
2022/11/25 10:15:58;;;;;;;;;5.25;5.00;;;;;11.03;74.69;101479.34;4956918;28;45940;-69
2022/11/25 10:18:31;;;;;;;;;10.00;5.25;;;;;11.07;75.21;101483.66;4955443;28;45342;-69
2022/11/25 10:20:56;;;;;;;;;3.00;2.75;;;;;11.15;75.25;101490.50;4956195;28;46537;-68
2022/11/25 10:23:35;;;;;;;;;6.50;3.50;;;;;11.20;74.28;101496.59;4967980;28;45673;-68
2022/11/25 10:26:09;;;;;;;;;7.00;4.00;;;;;11.24;74.20;101506.28;4976545;28;45337;-68
2022/11/25 10:28:36;;;;;;;;;6.50;3.75;;;;;11.26;73.87;101507.09;4977191;28;45472;-69
2022/11/25 10:31:20;;;;;;;;;4.75;4.75;;;;;11.31;74.08;101496.22;4977306;28;45487;-68
2022/11/25 10:33:47;;;;;;;;;4.50;3.00;;;;;11.33;73.73;101505.94;4977073;28;45382;-69
2022/11/25 10:36:18;;;;;;;;;5.50;5.50;;;;;11.21;73.66;101481.38;4977052;28;45468;-68
2022/11/25 10:38:58;;;;;;;;;6.00;4.50;;;;;11.37;72.86;101502.22;4958056;28;45556;-69
2022/11/25 10:41:30;;;;;;;;;3.75;3.75;;;;;11.45;73.29;101501.94;4976001;28;46003;-68
2022/11/25 10:43:56;;;;;;;;;5.50;3.50;;;;;11.54;73.21;101503.41;4975682;28;45541;-69
2022/11/25 10:46:42;;;;;;;;;4.00;4.00;;;;;11.62;72.67;101507.53;4975357;28;45405;-68
2022/11/25 10:49:34;;;;;;;;;4.25;4.00;;;;;11.63;72.14;101509.31;4975271;28;45468;-69
2022/11/25 10:51:59;;;;;;;;;5.00;4.00;;;;;11.63;72.27;101509.31;4975652;28;46295;-70
2022/11/25 10:54:27;;;;;;;;;11.50;5.00;;;;;11.65;72.18;101520.00;4975800;28;45339;-69
2022/11/25 10:56:58;;;;;;;;;6.25;5.00;;;;;11.72;72.36;101513.44;4975751;28;45321;-69
2022/11/25 10:59:23;;;;;;;;;8.75;4.00;;;;;11.81;71.67;101523.88;4975556;28;45353;-68
2022/11/25 11:01:51;;;;;;;;;5.50;3.00;;;;;12.04;71.24;101534.59;4971925;28;46176;-72
2022/11/25 11:04:18;;;;;;;;;5.75;4.50;;;;;12.38;68.86;101506.34;4965764;28;45341;-72
2022/11/25 11:06:46;;;;;;;;;3.00;3.00;;;;;13.34;66.92;101526.47;4975369;28;45496;-74
2022/11/25 11:09:32;;;;;;;;;7.75;4.50;;;;;14.51;63.74;101526.28;4974749;28;45352;-74
2022/11/25 11:12:20;;;;;;;;;5.75;5.75;;;;;15.60;60.45;101519.69;4956425;28;47270;-71
2022/11/25 11:14:46;;;;;;;;;8.25;4.75;;;;;16.75;58.05;101518.53;4962074;28;45637;-70
2022/11/25 11:17:33;;;;;;;;;4.50;3.50;;;;;17.69;54.59;101512.72;4973231;28;45471;-73
2022/11/25 11:20:20;;;;;;;;;3.50;2.25;;;;;18.51;53.02;101523.66;4974583;28;45374;-72
2022/11/25 11:22:56;;;;;;;;;6.00;4.75;;;;;18.84;50.29;101498.81;4950435;28;46289;-75
2022/11/25 11:25:24;;;;;;;;;8.25;4.50;;;;;18.96;50.34;101528.84;4974389;28;45476;-70
2022/11/25 11:27:50;;;;;;;;;4.25;3.75;;;;;18.73;50.45;101514.94;4974788;28;45596;-73
2022/11/25 11:30:20;;;;;;;;;4.25;3.50;;;;;18.51;50.79;101548.09;4957914;28;46391;-77
2022/11/25 11:33:28;;;;;;;;;6.25;3.75;;;;;17.88;51.15;101539.56;4974868;28;47079;-72
2022/11/25 11:36:09;;;;;;;;;2.00;2.00;;;;;17.11;52.93;101526.28;4973878;28;45262;-74
2022/11/25 11:38:44;;;;;;;;;2.75;1.75;;;;;16.55;54.63;101554.00;4975178;28;45155;-74
2022/11/25 11:41:37;;;;;;;;;3.50;3.00;;;;;15.99;55.92;101554.50;4975198;28;45508;-70
2022/11/25 11:44:12;;;;;;;;;3.00;3.00;;;;;15.58;57.22;101560.31;4975216;28;45513;-70
2022/11/25 11:46:55;;;;;;;;;5.25;4.50;;;;;15.34;58.80;101545.38;4975176;28;45307;-69
2022/11/25 11:49:35;;;;;;;;;4.75;3.75;;;;;15.19;58.89;101559.69;4975311;28;45476;-67
2022/11/25 11:52:30;;;;;;;;;5.25;3.25;;;;;15.04;59.83;101547.88;4974598;28;46025;-70
2022/11/25 11:55:04;;;;;;;;;4.00;2.50;;;;;14.80;60.57;101536.47;4975010;28;45971;-72
2022/11/25 11:57:50;;;;;;;;;8.25;4.50;;;;;14.67;61.01;101535.38;4957783;28;45261;-71
2022/11/25 12:00:18;;;;;;;;;6.25;3.50;;;;;14.57;60.91;101553.84;4975837;28;45407;-73
2022/11/25 12:03:04;;;;;;;;;8.00;3.00;;;;;14.29;60.82;101546.19;4976084;28;45338;-73
2022/11/25 12:05:34;;;;;;;;;5.25;2.50;;;;;14.15;61.79;101554.06;4975446;28;45974;-67
2022/11/25 12:08:26;;;;;;;;;3.50;1.50;;;;;14.02;61.95;101561.88;4976001;28;45476;-69
2022/11/25 12:11:08;;;;;;;;;2.00;2.00;;;;;13.88;62.68;101568.84;4975368;28;45451;-68
2022/11/25 12:13:54;;;;;;;;;3.00;2.00;;;;;13.77;63.03;101569.38;4974644;28;45710;-71
2022/11/25 12:16:29;;;;;;;;;3.75;3.75;;;;;13.75;63.78;101579.34;4974582;28;45496;-67
2022/11/25 12:19:15;;;;;;;;;4.50;3.75;;;;;13.70;63.54;101580.47;4974597;28;45726;-70
2022/11/25 12:22:06;;;;;;;;;4.00;1.75;;;;;13.80;63.69;101588.06;4974506;28;45482;-69
2022/11/25 12:25:01;;;;;;;;;5.75;2.00;;;;;13.77;63.75;101585.53;4930017;28;45320;-69
2022/11/25 12:27:37;;;;;;;;;4.25;2.00;;;;;13.67;62.74;101576.13;4901824;28;45562;-69
2022/11/25 12:30:06;;;;;;;;;4.50;2.50;;;;;13.71;63.39;101588.50;4956698;28;45267;-69
2022/11/25 12:32:47;;;;;;;;;3.00;3.00;;;;;13.77;63.57;101595.44;4976379;28;45310;-70
2022/11/25 12:35:56;;;;;;;;;4.00;3.00;;;;;13.75;63.04;101587.41;4978081;28;45308;-68
2022/11/25 12:38:24;;;;;;;;;5.25;2.25;;;;;13.79;63.62;101602.50;4976193;28;46458;-70
2022/11/25 12:41:02;;;;;;;;;2.50;2.00;;;;;13.80;63.28;101597.97;4977707;28;45353;-70
2022/11/25 12:43:45;;;;;;;;;2.50;2.00;;;;;13.74;63.25;101593.75;4978069;28;45349;-70
2022/11/25 12:46:36;;;;;;;;;2.00;2.00;;;;;13.73;63.23;101599.22;4977778;28;45192;-69
2022/11/25 12:49:02;;;;;;;;;2.75;2.00;;;;;13.78;63.40;101602.59;4977159;28;46092;-70
2022/11/25 12:51:37;;;;;;;;;5.50;4.25;;;;;13.79;63.26;101609.69;4977341;28;45397;-72
2022/11/25 12:54:31;;;;;;;;;5.00;2.00;;;;;13.83;63.00;101604.13;4966293;28;45501;-71
2022/11/25 12:57:26;;;;;;;;;2.00;2.00;;;;;13.91;62.64;101615.41;4906050;28;45605;-71
2022/11/25 13:00:10;;;;;;;;;4.50;2.50;;;;;13.95;63.27;101613.47;4974714;28;46366;-74
2022/11/25 13:03:00;;;;;;;;;7.75;4.50;;;;;13.96;62.56;101621.47;4973035;28;45745;-70
2022/11/25 13:05:41;;;;;;;;;5.00;3.75;;;;;14.01;62.74;101623.97;4962773;28;45503;-71
2022/11/25 13:08:22;;;;;;;;;5.50;4.00;;;;;13.99;62.66;101629.41;4957160;28;45263;-70
2022/11/25 13:11:11;;;;;;;;;7.25;2.00;;;;;13.99;62.76;101636.63;4964148;28;45222;-70
2022/11/25 13:14:24;;;;;;;;;2.00;2.00;;;;;14.11;62.34;101629.81;4971578;28;45351;-69
2022/11/25 13:16:52;;;;;;;;;1.75;1.75;;;;;14.23;62.45;101632.78;4895458;28;45380;-69
2022/11/25 13:19:18;;;;;;;;;4.50;3.00;;;;;14.32;61.78;101632.38;4968559;28;45825;-70
2022/11/25 13:21:59;;;;;;;;;3.00;2.50;;;;;14.31;61.12;101636.00;4976847;28;45322;-70
2022/11/25 13:24:31;;;;;;;;;3.25;1.25;;;;;14.27;60.96;101631.72;4976004;28;45383;-69
2022/11/25 13:26:56;;;;;;;;;4.25;3.00;;;;;14.20;61.74;101622.16;4977040;28;45428;-69
2022/11/25 13:29:24;;;;;;;;;4.25;2.00;;;;;14.23;61.67;101622.00;4975517;28;45514;-71
2022/11/25 13:31:56;;;;;;;;;2.75;1.25;;;;;14.24;61.54;101634.56;4965848;28;46245;-70
2022/11/25 13:34:32;;;;;;;;;2.00;2.00;;;;;14.29;61.94;101635.19;4976618;28;45445;-72
2022/11/25 13:37:00;;;;;;;;;5.00;2.25;;;;;14.28;60.69;101638.88;4976753;28;45303;-71
2022/11/25 13:39:37;;;;;;;;;2.75;2.00;;;;;14.33;60.91;101642.22;4976242;28;46027;-71
2022/11/25 13:42:23;;;;;;;;;3.00;1.00;;;;;14.40;61.12;101650.91;4963780;28;46152;-70
2022/11/25 13:44:49;;;;;;;;;5.00;2.00;;;;;14.45;60.67;101645.31;4965767;28;45320;-71
2022/11/25 13:47:22;;;;;;;;;6.50;4.00;;;;;14.45;60.92;101639.91;4976284;28;45347;-71
2022/11/25 13:49:57;;;;;;;;;2.25;2.00;;;;;14.34;61.20;101627.78;4959309;28;46819;-71
2022/11/25 13:52:33;;;;;;;;;4.50;3.25;;;;;14.50;60.64;101654.06;4976062;28;45631;-71
2022/11/25 13:55:04;;;;;;;;;4.00;1.50;;;;;14.48;60.80;101647.84;4977502;28;45515;-72
2022/11/25 13:57:34;;;;;;;;;5.50;3.00;;;;;14.55;60.52;101654.69;4977730;28;45430;-69
2022/11/25 13:59:59;;;;;;;;;3.00;1.00;;;;;14.57;59.91;101653.69;4975477;28;45574;-71
2022/11/25 14:02:29;;;;;;;;;3.75;3.75;;;;;14.65;60.21;101653.31;4975996;28;46189;-70
2022/11/25 14:05:26;;;;;;;;;2.00;2.00;;;;;14.89;59.78;101652.09;4976501;28;45535;-70
2022/11/25 14:08:06;;;;;;;;;4.00;2.25;;;;;15.25;58.99;101664.72;4976293;28;45402;-70
2022/11/25 14:11:09;;;;;;;;;2.00;2.00;;;;;15.61;57.24;101668.28;4976108;28;45405;-71
2022/11/25 14:13:41;;;;;;;;;5.00;4.25;;;;;15.70;57.88;101677.75;4930399;28;45463;-71
2022/11/25 14:16:34;;;;;;;;;4.00;2.25;;;;;15.81;56.73;101688.88;4956556;28;45573;-71
2022/11/25 14:19:08;;;;;;;;;4.00;2.75;;;;;15.83;56.04;101689.66;4966568;28;45437;-73
2022/11/25 14:22:04;;;;;;;;;3.50;2.25;;;;;15.82;55.76;101690.63;4975792;28;45519;-72
2022/11/25 14:24:53;;;;;;;;;4.50;2.25;;;;;15.83;56.22;101695.06;4973939;28;45822;-72
2022/11/25 14:27:24;;;;;;;;;2.25;2.25;;;;;15.98;56.25;101699.69;4956964;28;45525;-71
2022/11/25 14:29:51;;;;;;;;;6.00;3.00;;;;;16.06;55.61;101708.25;4962478;28;45516;-71
2022/11/25 14:32:19;;;;;;;;;11.25;6.50;;;;;16.18;55.72;101707.59;4969010;28;45537;-71
2022/11/25 14:34:53;;;;;;;;;8.00;2.00;;;;;16.31;55.29;101709.66;4976310;28;45318;-72
2022/11/25 14:37:28;;;;;;;;;3.00;2.75;;;;;16.47;54.13;101713.25;4975380;28;45445;-72
2022/11/25 14:40:05;;;;;;;;;4.75;3.00;;;;;16.25;53.50;101684.66;4976085;28;45442;-71
2022/11/25 14:42:38;;;;;;;;;6.00;3.00;;;;;16.53;53.46;101721.03;4975645;28;45508;-71
2022/11/25 14:45:22;;;;;;;;;5.00;2.50;;;;;16.43;54.59;101722.50;4976074;28;46331;-72
2022/11/25 14:47:48;;;;;;;;;5.75;4.00;;;;;16.36;54.28;101713.84;4957928;28;45721;-71
2022/11/25 14:50:14;;;;;;;;;3.50;1.00;;;;;16.33;53.81;101737.50;4975551;28;45432;-70
2022/11/25 14:52:42;;;;;;;;;2.00;2.00;;;;;16.22;53.94;101735.38;4975704;28;45377;-71
2022/11/25 14:55:09;;;;;;;;;0.50;0.50;;;;;16.16;53.84;101735.72;4957159;28;46241;-71
2022/11/25 14:57:37;;;;;;;;;1.50;1.00;;;;;16.06;53.18;101735.31;4973230;28;45415;-70
2022/11/25 15:00:10;;;;;;;;;7.00;2.00;;;;;15.93;54.13;101730.63;4973965;28;45421;-72
2022/11/25 15:02:39;;;;;;;;;4.00;1.75;;;;;15.85;54.46;101747.25;4954099;28;46323;-71
2022/11/25 15:05:19;;;;;;;;;5.00;2.00;;;;;15.70;54.53;101745.34;4956092;28;45512;-71
2022/11/25 15:08:14;;;;;;;;;2.25;2.25;;;;;15.49;55.38;101725.63;4955814;28;45291;-72
2022/11/25 15:10:49;;;;;;;;;4.00;3.00;;;;;15.57;55.83;101757.75;4963704;28;45449;-71
2022/11/25 15:13:38;;;;;;;;;6.75;2.75;;;;;15.41;56.10;101773.78;4972302;28;45514;-73
2022/11/25 15:16:14;;;;;;;;;7.75;3.00;;;;;15.28;56.60;101784.34;4956317;28;45308;-70
2022/11/25 15:18:49;;;;;;;;;2.00;2.00;;;;;15.10;56.70;101780.69;4963624;28;45483;-71
2022/11/25 15:21:19;;;;;;;;;3.00;3.00;;;;;14.94;57.61;101792.31;4976043;28;45443;-73
2022/11/25 15:23:45;;;;;;;;;5.25;2.25;;;;;14.80;58.28;101794.78;4957622;28;46341;-75
2022/11/25 15:26:23;;;;;;;;;3.00;2.00;;;;;14.79;57.99;101802.00;4976480;28;45503;-75
2022/11/25 15:29:12;;;;;;;;;7.00;2.75;;;;;14.44;58.27;101757.75;4978673;28;45413;-76
2022/11/25 15:31:40;;;;;;;;;3.75;2.00;;;;;14.63;58.19;101807.22;4967125;28;45504;-71
2022/11/25 15:34:10;;;;;;;;;5.00;2.75;;;;;14.38;57.77;101798.44;4954359;28;45563;-70
2022/11/25 15:36:36;;;;;;;;;1.75;1.00;;;;;14.35;58.58;101818.38;4952482;28;45504;-71
2022/11/25 15:39:34;;;;;;;;;3.25;2.00;;;;;14.34;59.11;101829.22;4956833;28;45485;-74
2022/11/25 15:42:19;;;;;;;;;4.50;3.25;;;;;14.30;59.53;101844.66;4899582;28;45538;-72
2022/11/25 15:44:53;;;;;;;;;3.00;3.00;;;;;14.21;60.05;101844.16;4943298;28;45799;-73
2022/11/25 15:47:23;;;;;;;;;2.50;2.50;;;;;14.21;60.66;101845.06;4935401;28;45454;-72
2022/11/25 15:50:27;;;;;;;;;4.75;4.00;;;;;14.16;60.72;101848.91;4936414;28;45478;-71
2022/11/25 15:52:55;;;;;;;;;3.75;3.25;;;;;14.05;60.90;101851.16;4927842;28;45270;-72
2022/11/25 15:55:36;;;;;;;;;1.00;1.00;;;;;14.01;61.34;101858.53;4954787;28;45342;-73
2022/11/25 15:58:10;;;;;;;;;2.25;2.25;;;;;13.93;61.84;101855.28;4955570;28;45430;-72
2022/11/25 16:00:35;;;;;;;;;2.75;2.75;;;;;13.84;61.98;101851.16;4952291;28;45462;-74
2022/11/25 16:03:03;;;;;;;;;4.00;2.50;;;;;13.83;62.22;101862.88;4936181;28;45407;-72
2022/11/25 16:05:54;;;;;;;;;4.50;2.50;;;;;13.69;61.85;101854.50;4944786;28;45568;-71
2022/11/25 16:08:37;;;;;;;;;3.00;3.00;;;;;13.79;62.80;101882.78;4923185;28;46048;-72
2022/11/25 16:11:14;;;;;;;;;5.75;4.00;;;;;13.64;62.43;101875.34;4939352;28;45338;-71
2022/11/25 16:13:41;;;;;;;;;3.00;2.00;;;;;13.58;63.07;101884.56;4946662;28;45523;-75
2022/11/25 16:16:06;;;;;;;;;5.25;4.00;;;;;13.56;63.40;101893.63;4941615;28;46093;-73
2022/11/25 16:18:59;;;;;;;;;3.00;3.00;;;;;13.47;63.38;101885.91;4946670;28;46200;-72
2022/11/25 16:21:31;;;;;;;;;4.75;4.75;;;;;13.41;63.34;101891.56;4944376;28;45481;-72
2022/11/25 16:24:27;;;;;;;;;3.25;3.00;;;;;13.38;63.69;101903.31;4949073;28;45438;-70
2022/11/25 16:27:00;;;;;;;;;5.50;4.00;;;;;13.27;63.74;101892.97;4923876;28;46680;-74
2022/11/25 16:29:30;;;;;;;;;5.25;3.00;;;;;13.27;64.07;101899.31;4949576;28;45532;-72
2022/11/25 16:31:57;;;;;;;;;4.75;3.00;;;;;13.21;63.76;101909.34;4956048;28;45389;-74
2022/11/25 16:34:24;;;;;;;;;5.25;4.00;;;;;13.20;64.09;101910.28;4969427;28;45431;-73
2022/11/25 16:36:49;;;;;;;;;6.75;5.75;;;;;13.22;63.83;101923.69;4965379;28;45342;-73
2022/11/25 16:39:15;;;;;;;;;5.50;4.00;;;;;13.18;64.10;101922.09;4973931;28;47216;-72
2022/11/25 16:41:45;;;;;;;;;7.75;4.75;;;;;13.17;64.05;101931.97;4974666;28;45382;-73
2022/11/25 16:44:20;;;;;;;;;4.75;3.50;;;;;13.12;64.28;101925.81;4974075;28;45580;-71
2022/11/25 16:46:45;;;;;;;;;6.00;4.25;;;;;13.14;64.35;101931.19;4974047;28;46912;-73
2022/11/25 16:49:16;;;;;;;;;5.25;3.00;;;;;13.09;64.31;101925.97;4974175;28;45484;-71
2022/11/25 16:51:41;;;;;;;;;7.00;6.00;;;;;13.15;64.74;101941.91;4974320;28;45472;-72
2022/11/25 16:54:07;;;;;;;;;3.75;3.25;;;;;12.93;64.45;101903.22;4973964;28;45476;-72
2022/11/25 16:56:35;;;;;;;;;8.50;3.00;;;;;13.10;64.67;101943.84;4974139;28;45649;-73
2022/11/25 16:59:01;;;;;;;;;3.00;3.00;;;;;12.99;64.52;101932.63;4973877;28;45488;-74
2022/11/25 17:01:29;;;;;;;;;5.25;4.00;;;;;13.06;64.91;101942.22;4961536;28;45539;-74
2022/11/25 17:03:56;;;;;;;;;9.25;5.25;;;;;13.03;64.45;101936.94;4955576;28;45303;-74
2022/11/25 17:06:26;;;;;;;;;6.00;4.00;;;;;12.80;64.80;101912.69;4956510;28;45453;-73
2022/11/25 17:08:51;;;;;;;;;7.50;4.75;;;;;12.95;64.78;101940.84;4963095;28;46345;-72
2022/11/25 17:11:18;;;;;;;;;6.25;5.00;;;;;12.80;65.16;101937.78;4975838;28;45362;-73
2022/11/25 17:13:49;;;;;;;;;5.00;3.25;;;;;12.93;64.96;101961.59;4961794;28;45378;-73
2022/11/25 17:16:20;;;;;;;;;12.00;5.75;;;;;12.88;65.18;101964.41;4954346;28;45951;-74
2022/11/25 17:18:46;;;;;;;;;6.00;5.25;;;;;12.74;65.15;101946.09;4955799;28;46157;-73
2022/11/25 17:21:13;;;;;;;;;8.00;3.75;;;;;12.89;65.00;101979.63;4957702;28;45342;-72
2022/11/25 17:23:47;;;;;;;;;8.00;3.00;;;;;12.91;65.20;101988.56;4957732;28;45255;-73
2022/11/25 17:26:24;;;;;;;;;10.75;4.00;;;;;12.79;65.10;101979.09;4956958;28;45362;-73